Bismarck, North Dakota
Current Conditions -  °F | °C
As of 11:52 AM on Monday 24 Nov 2014 (Local Time) from KBIS Reporting Station
Clear Clear  
Wind Chill: 10°   Ceiling: Unl
Heat Index: 22°   Visibility: 10mi
Dew Point:   Wind: 12mph
Humidity: 46%   Direction: 330°NNW
Pressure: 29.92"   Gusts: NA
Location:  46.81°N, 100.77°W
Report Text: KBIS 241752Z 33010KT 10SM CLR M06/M16 A2992 RMK AO2 SLP163 T10561156 11056 21117 51016
Loading
Personal Weather Stations






























Interactive Weather Map New forecast layout! Learn more

10-Day Weather Forecast

Advertisements
Track Severe Weather on mobile